sensor_id;sensor_type;location;lat;lon;timestamp;P1;durP1;ratioP1;P2;durP2;ratioP2
64033;SDS011;50280;49.864;8.638;2022-12-07T00:00:07;13.13;;;6.72;;
64033;SDS011;50280;49.864;8.638;2022-12-07T00:02:41;11.65;;;6.45;;
64033;SDS011;50280;49.864;8.638;2022-12-07T00:05:15;11.85;;;6.30;;
64033;SDS011;50280;49.864;8.638;2022-12-07T00:07:47;12.02;;;5.70;;
64033;SDS011;50280;49.864;8.638;2022-12-07T00:10:21;12.68;;;6.28;;
64033;SDS011;50280;49.864;8.638;2022-12-07T00:12:53;13.48;;;6.20;;
64033;SDS011;50280;49.864;8.638;2022-12-07T00:15:25;14.27;;;6.88;;
64033;SDS011;50280;49.864;8.638;2022-12-07T00:17:58;19.15;;;10.40;;
64033;SDS011;50280;49.864;8.638;2022-12-07T00:20:31;13.25;;;6.40;;
64033;SDS011;50280;49.864;8.638;2022-12-07T00:23:05;12.27;;;6.15;;
64033;SDS011;50280;49.864;8.638;2022-12-07T00:25:37;13.77;;;6.70;;
64033;SDS011;50280;49.864;8.638;2022-12-07T00:28:09;15.52;;;6.45;;
64033;SDS011;50280;49.864;8.638;2022-12-07T00:30:42;12.32;;;6.68;;
64033;SDS011;50280;49.864;8.638;2022-12-07T00:33:14;12.18;;;6.78;;
64033;SDS011;50280;49.864;8.638;2022-12-07T00:35:54;10.82;;;5.85;;
64033;SDS011;50280;49.864;8.638;2022-12-07T00:38:28;11.55;;;6.22;;
64033;SDS011;50280;49.864;8.638;2022-12-07T00:41:05;13.35;;;6.13;;
64033;SDS011;50280;49.864;8.638;2022-12-07T00:43:42;10.88;;;6.22;;
64033;SDS011;50280;49.864;8.638;2022-12-07T00:46:17;11.88;;;5.95;;
64033;SDS011;50280;49.864;8.638;2022-12-07T00:48:52;11.57;;;6.07;;
64033;SDS011;50280;49.864;8.638;2022-12-07T00:51:27;15.45;;;6.68;;
64033;SDS011;50280;49.864;8.638;2022-12-07T00:54:00;14.88;;;6.70;;
64033;SDS011;50280;49.864;8.638;2022-12-07T00:56:32;12.93;;;6.75;;
64033;SDS011;50280;49.864;8.638;2022-12-07T00:59:05;12.23;;;7.05;;
64033;SDS011;50280;49.864;8.638;2022-12-07T01:01:38;14.07;;;6.70;;
64033;SDS011;50280;49.864;8.638;2022-12-07T01:04:10;11.25;;;6.22;;
64033;SDS011;50280;49.864;8.638;2022-12-07T01:06:44;11.18;;;6.20;;
64033;SDS011;50280;49.864;8.638;2022-12-07T01:09:16;12.65;;;6.60;;
64033;SDS011;50280;49.864;8.638;2022-12-07T01:11:48;11.88;;;6.63;;
64033;SDS011;50280;49.864;8.638;2022-12-07T01:14:21;11.57;;;6.63;;
64033;SDS011;50280;49.864;8.638;2022-12-07T01:16:53;11.75;;;6.43;;
64033;SDS011;50280;49.864;8.638;2022-12-07T01:19:25;13.35;;;7.15;;
64033;SDS011;50280;49.864;8.638;2022-12-07T01:21:59;13.13;;;7.13;;
64033;SDS011;50280;49.864;8.638;2022-12-07T01:24:31;12.43;;;6.47;;
64033;SDS011;50280;49.864;8.638;2022-12-07T01:27:04;12.82;;;6.60;;
64033;SDS011;50280;49.864;8.638;2022-12-07T01:29:36;11.38;;;6.22;;
64033;SDS011;50280;49.864;8.638;2022-12-07T01:32:09;12.80;;;6.82;;
64033;SDS011;50280;49.864;8.638;2022-12-07T01:34:41;13.38;;;6.95;;
64033;SDS011;50280;49.864;8.638;2022-12-07T01:37:15;10.57;;;6.13;;
64033;SDS011;50280;49.864;8.638;2022-12-07T01:39:48;14.63;;;6.63;;
64033;SDS011;50280;49.864;8.638;2022-12-07T01:42:20;11.40;;;6.35;;
64033;SDS011;50280;49.864;8.638;2022-12-07T01:45:25;13.05;;;7.22;;
64033;SDS011;50280;49.864;8.638;2022-12-07T01:48:13;11.73;;;5.82;;
64033;SDS011;50280;49.864;8.638;2022-12-07T01:50:52;12.57;;;6.70;;
64033;SDS011;50280;49.864;8.638;2022-12-07T01:53:33;10.55;;;5.82;;
64033;SDS011;50280;49.864;8.638;2022-12-07T01:56:14;12.45;;;6.15;;
64033;SDS011;50280;49.864;8.638;2022-12-07T01:58:56;10.65;;;6.35;;
64033;SDS011;50280;49.864;8.638;2022-12-07T02:01:32;10.25;;;5.70;;
64033;SDS011;50280;49.864;8.638;2022-12-07T02:04:04;13.15;;;6.68;;
64033;SDS011;50280;49.864;8.638;2022-12-07T02:06:38;11.48;;;6.78;;
64033;SDS011;50280;49.864;8.638;2022-12-07T02:09:14;12.68;;;6.68;;
64033;SDS011;50280;49.864;8.638;2022-12-07T02:11:46;13.07;;;6.63;;
64033;SDS011;50280;49.864;8.638;2022-12-07T02:14:20;11.85;;;6.78;;
64033;SDS011;50280;49.864;8.638;2022-12-07T02:16:56;13.13;;;6.53;;
64033;SDS011;50280;49.864;8.638;2022-12-07T02:23:02;11.77;;;6.55;;
64033;SDS011;50280;49.864;8.638;2022-12-07T02:30:08;12.10;;;6.03;;
64033;SDS011;50280;49.864;8.638;2022-12-07T02:32:45;11.73;;;6.10;;
64033;SDS011;50280;49.864;8.638;2022-12-07T02:35:32;13.18;;;6.55;;
64033;SDS011;50280;49.864;8.638;2022-12-07T02:38:13;12.20;;;6.38;;
64033;SDS011;50280;49.864;8.638;2022-12-07T02:41:00;10.18;;;5.22;;
64033;SDS011;50280;49.864;8.638;2022-12-07T02:43:45;11.80;;;6.43;;
64033;SDS011;50280;49.864;8.638;2022-12-07T02:46:28;11.25;;;6.10;;
64033;SDS011;50280;49.864;8.638;2022-12-07T02:49:08;12.63;;;6.95;;
64033;SDS011;50280;49.864;8.638;2022-12-07T02:51:43;10.93;;;6.35;;
64033;SDS011;50280;49.864;8.638;2022-12-07T02:54:19;13.63;;;6.55;;
64033;SDS011;50280;49.864;8.638;2022-12-07T02:56:54;11.13;;;6.03;;
64033;SDS011;50280;49.864;8.638;2022-12-07T02:59:41;11.63;;;6.10;;
64033;SDS011;50280;49.864;8.638;2022-12-07T03:02:38;12.07;;;6.13;;
64033;SDS011;50280;49.864;8.638;2022-12-07T03:05:28;10.98;;;5.90;;
64033;SDS011;50280;49.864;8.638;2022-12-07T03:08:31;11.65;;;6.25;;
64033;SDS011;50280;49.864;8.638;2022-12-07T03:11:29;13.23;;;6.45;;
64033;SDS011;50280;49.864;8.638;2022-12-07T03:14:17;12.73;;;6.35;;
64033;SDS011;50280;49.864;8.638;2022-12-07T03:17:01;12.65;;;7.07;;
64033;SDS011;50280;49.864;8.638;2022-12-07T03:19:45;11.88;;;5.95;;
64033;SDS011;50280;49.864;8.638;2022-12-07T03:22:26;13.75;;;6.65;;
64033;SDS011;50280;49.864;8.638;2022-12-07T03:25:06;13.23;;;6.03;;
64033;SDS011;50280;49.864;8.638;2022-12-07T03:33:06;12.05;;;6.03;;
64033;SDS011;50280;49.864;8.638;2022-12-07T03:35:52;12.63;;;6.75;;
64033;SDS011;50280;49.864;8.638;2022-12-07T03:38:37;11.73;;;6.18;;
64033;SDS011;50280;49.864;8.638;2022-12-07T03:41:18;12.00;;;6.53;;
64033;SDS011;50280;49.864;8.638;2022-12-07T03:43:58;12.75;;;6.30;;
64033;SDS011;50280;49.864;8.638;2022-12-07T03:46:34;11.38;;;6.05;;
64033;SDS011;50280;49.864;8.638;2022-12-07T03:49:18;12.43;;;6.20;;
64033;SDS011;50280;49.864;8.638;2022-12-07T03:52:02;11.60;;;5.78;;
64033;SDS011;50280;49.864;8.638;2022-12-07T03:54:55;12.13;;;6.22;;
64033;SDS011;50280;49.864;8.638;2022-12-07T03:57:37;11.88;;;5.60;;
64033;SDS011;50280;49.864;8.638;2022-12-07T04:00:14;13.13;;;6.32;;
64033;SDS011;50280;49.864;8.638;2022-12-07T04:02:51;13.48;;;6.68;;
64033;SDS011;50280;49.864;8.638;2022-12-07T04:05:24;13.80;;;6.88;;
64033;SDS011;50280;49.864;8.638;2022-12-07T04:07:59;12.68;;;6.50;;
64033;SDS011;50280;49.864;8.638;2022-12-07T04:10:31;11.23;;;6.28;;
64033;SDS011;50280;49.864;8.638;2022-12-07T04:13:04;13.43;;;6.25;;
64033;SDS011;50280;49.864;8.638;2022-12-07T04:15:36;12.68;;;6.45;;
64033;SDS011;50280;49.864;8.638;2022-12-07T04:18:08;12.48;;;5.88;;
64033;SDS011;50280;49.864;8.638;2022-12-07T04:20:41;12.95;;;6.30;;
64033;SDS011;50280;49.864;8.638;2022-12-07T04:23:15;13.68;;;6.57;;
64033;SDS011;50280;49.864;8.638;2022-12-07T04:25:47;12.70;;;6.30;;
64033;SDS011;50280;49.864;8.638;2022-12-07T04:28:20;12.35;;;6.25;;
64033;SDS011;50280;49.864;8.638;2022-12-07T04:30:52;11.25;;;6.20;;
64033;SDS011;50280;49.864;8.638;2022-12-07T04:33:25;13.52;;;6.30;;
64033;SDS011;50280;49.864;8.638;2022-12-07T04:35:57;12.05;;;5.82;;
64033;SDS011;50280;49.864;8.638;2022-12-07T04:38:31;13.52;;;6.40;;
64033;SDS011;50280;49.864;8.638;2022-12-07T04:41:04;13.93;;;6.88;;
64033;SDS011;50280;49.864;8.638;2022-12-07T04:43:38;12.55;;;5.97;;
64033;SDS011;50280;49.864;8.638;2022-12-07T04:46:10;12.95;;;6.57;;
64033;SDS011;50280;49.864;8.638;2022-12-07T04:48:43;12.93;;;6.68;;
64033;SDS011;50280;49.864;8.638;2022-12-07T04:51:16;11.82;;;6.05;;
64033;SDS011;50280;49.864;8.638;2022-12-07T04:53:55;13.32;;;6.82;;
64033;SDS011;50280;49.864;8.638;2022-12-07T04:56:28;13.90;;;6.80;;
64033;SDS011;50280;49.864;8.638;2022-12-07T04:59:01;14.10;;;6.18;;
64033;SDS011;50280;49.864;8.638;2022-12-07T05:01:35;12.15;;;6.15;;
64033;SDS011;50280;49.864;8.638;2022-12-07T05:04:08;12.88;;;6.43;;
64033;SDS011;50280;49.864;8.638;2022-12-07T05:06:41;11.48;;;6.25;;
64033;SDS011;50280;49.864;8.638;2022-12-07T05:09:15;12.68;;;6.82;;
64033;SDS011;50280;49.864;8.638;2022-12-07T05:11:48;11.65;;;6.30;;
64033;SDS011;50280;49.864;8.638;2022-12-07T05:14:20;12.00;;;6.03;;
64033;SDS011;50280;49.864;8.638;2022-12-07T05:16:53;13.35;;;6.40;;
64033;SDS011;50280;49.864;8.638;2022-12-07T05:19:25;12.90;;;6.47;;
64033;SDS011;50280;49.864;8.638;2022-12-07T05:21:58;12.95;;;6.75;;
64033;SDS011;50280;49.864;8.638;2022-12-07T05:24:31;12.18;;;6.43;;
64033;SDS011;50280;49.864;8.638;2022-12-07T05:27:04;12.77;;;6.32;;
64033;SDS011;50280;49.864;8.638;2022-12-07T05:29:36;13.38;;;6.07;;
64033;SDS011;50280;49.864;8.638;2022-12-07T05:32:08;12.32;;;6.40;;
64033;SDS011;50280;49.864;8.638;2022-12-07T05:34:41;12.75;;;6.28;;
64033;SDS011;50280;49.864;8.638;2022-12-07T05:37:14;12.45;;;6.18;;
64033;SDS011;50280;49.864;8.638;2022-12-07T05:39:47;11.88;;;6.43;;
64033;SDS011;50280;49.864;8.638;2022-12-07T05:42:20;11.43;;;6.35;;
64033;SDS011;50280;49.864;8.638;2022-12-07T05:44:52;14.32;;;6.13;;
64033;SDS011;50280;49.864;8.638;2022-12-07T05:47:24;13.05;;;6.78;;
64033;SDS011;50280;49.864;8.638;2022-12-07T05:49:57;11.70;;;6.35;;
64033;SDS011;50280;49.864;8.638;2022-12-07T05:52:29;13.35;;;6.53;;
64033;SDS011;50280;49.864;8.638;2022-12-07T05:55:03;14.48;;;7.00;;
64033;SDS011;50280;49.864;8.638;2022-12-07T05:57:37;14.43;;;6.90;;
64033;SDS011;50280;49.864;8.638;2022-12-07T06:00:11;12.45;;;6.75;;
64033;SDS011;50280;49.864;8.638;2022-12-07T06:02:45;12.40;;;6.13;;
64033;SDS011;50280;49.864;8.638;2022-12-07T06:05:17;13.45;;;6.32;;
64033;SDS011;50280;49.864;8.638;2022-12-07T06:07:50;10.65;;;5.70;;
64033;SDS011;50280;49.864;8.638;2022-12-07T06:10:23;11.32;;;6.38;;
64033;SDS011;50280;49.864;8.638;2022-12-07T06:12:56;12.18;;;6.00;;
64033;SDS011;50280;49.864;8.638;2022-12-07T06:15:28;10.60;;;5.68;;
64033;SDS011;50280;49.864;8.638;2022-12-07T06:18:01;11.48;;;6.60;;
64033;SDS011;50280;49.864;8.638;2022-12-07T06:20:33;11.00;;;6.07;;
64033;SDS011;50280;49.864;8.638;2022-12-07T06:23:05;12.68;;;5.80;;
64033;SDS011;50280;49.864;8.638;2022-12-07T06:25:39;13.18;;;6.82;;
64033;SDS011;50280;49.864;8.638;2022-12-07T06:28:16;10.32;;;6.18;;
64033;SDS011;50280;49.864;8.638;2022-12-07T06:30:56;11.85;;;5.80;;
64033;SDS011;50280;49.864;8.638;2022-12-07T06:33:29;10.95;;;5.75;;
64033;SDS011;50280;49.864;8.638;2022-12-07T06:36:02;10.77;;;5.75;;
64033;SDS011;50280;49.864;8.638;2022-12-07T06:38:35;11.30;;;6.13;;
64033;SDS011;50280;49.864;8.638;2022-12-07T06:41:09;12.77;;;6.55;;
64033;SDS011;50280;49.864;8.638;2022-12-07T06:43:41;11.52;;;6.60;;
64033;SDS011;50280;49.864;8.638;2022-12-07T06:46:14;10.23;;;5.97;;
64033;SDS011;50280;49.864;8.638;2022-12-07T06:48:47;11.80;;;5.95;;
64033;SDS011;50280;49.864;8.638;2022-12-07T06:51:19;11.32;;;6.07;;
64033;SDS011;50280;49.864;8.638;2022-12-07T06:53:52;11.00;;;5.82;;
64033;SDS011;50280;49.864;8.638;2022-12-07T06:56:26;12.00;;;6.30;;
64033;SDS011;50280;49.864;8.638;2022-12-07T06:58:58;15.82;;;6.70;;
64033;SDS011;50280;49.864;8.638;2022-12-07T07:01:30;12.13;;;6.22;;
64033;SDS011;50280;49.864;8.638;2022-12-07T07:04:04;13.65;;;6.47;;
64033;SDS011;50280;49.864;8.638;2022-12-07T07:06:36;13.02;;;6.63;;
64033;SDS011;50280;49.864;8.638;2022-12-07T07:09:09;12.10;;;5.88;;
64033;SDS011;50280;49.864;8.638;2022-12-07T07:11:42;14.38;;;6.57;;
64033;SDS011;50280;49.864;8.638;2022-12-07T07:14:15;13.82;;;7.10;;
64033;SDS011;50280;49.864;8.638;2022-12-07T07:16:47;11.18;;;5.97;;
64033;SDS011;50280;49.864;8.638;2022-12-07T07:19:20;12.00;;;6.13;;
64033;SDS011;50280;49.864;8.638;2022-12-07T07:21:52;13.23;;;6.82;;
64033;SDS011;50280;49.864;8.638;2022-12-07T07:24:26;12.40;;;6.32;;
64033;SDS011;50280;49.864;8.638;2022-12-07T07:26:59;12.05;;;6.65;;
64033;SDS011;50280;49.864;8.638;2022-12-07T07:29:32;13.52;;;7.05;;
64033;SDS011;50280;49.864;8.638;2022-12-07T07:32:04;13.30;;;6.53;;
64033;SDS011;50280;49.864;8.638;2022-12-07T07:34:37;12.93;;;6.47;;
64033;SDS011;50280;49.864;8.638;2022-12-07T07:37:09;12.00;;;6.35;;
64033;SDS011;50280;49.864;8.638;2022-12-07T07:39:41;12.38;;;6.53;;
64033;SDS011;50280;49.864;8.638;2022-12-07T07:42:15;11.77;;;6.78;;
64033;SDS011;50280;49.864;8.638;2022-12-07T07:44:48;12.60;;;6.57;;
64033;SDS011;50280;49.864;8.638;2022-12-07T07:47:20;12.00;;;6.20;;
64033;SDS011;50280;49.864;8.638;2022-12-07T07:49:52;11.50;;;6.32;;
64033;SDS011;50280;49.864;8.638;2022-12-07T07:52:25;16.20;;;7.38;;
64033;SDS011;50280;49.864;8.638;2022-12-07T07:54:58;11.57;;;6.47;;
64033;SDS011;50280;49.864;8.638;2022-12-07T07:57:31;12.38;;;6.63;;
64033;SDS011;50280;49.864;8.638;2022-12-07T08:00:04;10.77;;;5.70;;
64033;SDS011;50280;49.864;8.638;2022-12-07T08:02:42;12.98;;;6.70;;
64033;SDS011;50280;49.864;8.638;2022-12-07T08:05:15;11.93;;;6.90;;
64033;SDS011;50280;49.864;8.638;2022-12-07T08:07:48;10.90;;;6.35;;
64033;SDS011;50280;49.864;8.638;2022-12-07T08:10:21;12.98;;;6.80;;
64033;SDS011;50280;49.864;8.638;2022-12-07T08:12:54;11.52;;;6.53;;
64033;SDS011;50280;49.864;8.638;2022-12-07T08:15:27;13.40;;;6.40;;
64033;SDS011;50280;49.864;8.638;2022-12-07T08:18:02;11.95;;;6.65;;
64033;SDS011;50280;49.864;8.638;2022-12-07T08:20:34;12.23;;;6.80;;
64033;SDS011;50280;49.864;8.638;2022-12-07T08:23:09;11.77;;;6.35;;
64033;SDS011;50280;49.864;8.638;2022-12-07T08:25:42;11.80;;;6.82;;
64033;SDS011;50280;49.864;8.638;2022-12-07T08:28:16;12.40;;;6.95;;
64033;SDS011;50280;49.864;8.638;2022-12-07T08:30:49;12.90;;;7.00;;
64033;SDS011;50280;49.864;8.638;2022-12-07T08:33:21;12.10;;;7.07;;
64033;SDS011;50280;49.864;8.638;2022-12-07T08:35:53;10.57;;;6.47;;
64033;SDS011;50280;49.864;8.638;2022-12-07T08:38:26;12.70;;;6.95;;
64033;SDS011;50280;49.864;8.638;2022-12-07T08:40:59;14.25;;;7.25;;
64033;SDS011;50280;49.864;8.638;2022-12-07T08:43:33;11.70;;;6.47;;
64033;SDS011;50280;49.864;8.638;2022-12-07T08:46:09;13.43;;;6.95;;
64033;SDS011;50280;49.864;8.638;2022-12-07T08:48:51;13.75;;;6.95;;
64033;SDS011;50280;49.864;8.638;2022-12-07T08:51:33;12.70;;;6.88;;
64033;SDS011;50280;49.864;8.638;2022-12-07T08:54:07;12.68;;;6.68;;
64033;SDS011;50280;49.864;8.638;2022-12-07T08:56:46;13.05;;;6.40;;
64033;SDS011;50280;49.864;8.638;2022-12-07T08:59:22;12.75;;;6.75;;
64033;SDS011;50280;49.864;8.638;2022-12-07T09:01:55;13.30;;;6.90;;
64033;SDS011;50280;49.864;8.638;2022-12-07T09:04:27;12.95;;;6.72;;
64033;SDS011;50280;49.864;8.638;2022-12-07T09:07:00;14.85;;;7.28;;
64033;SDS011;50280;49.864;8.638;2022-12-07T09:09:32;12.93;;;6.82;;
64033;SDS011;50280;49.864;8.638;2022-12-07T09:12:05;15.38;;;7.30;;
64033;SDS011;50280;49.864;8.638;2022-12-07T09:14:39;12.02;;;6.78;;
64033;SDS011;50280;49.864;8.638;2022-12-07T09:17:11;12.45;;;6.50;;
64033;SDS011;50280;49.864;8.638;2022-12-07T09:19:45;11.75;;;6.57;;
64033;SDS011;50280;49.864;8.638;2022-12-07T09:22:17;11.80;;;6.10;;
64033;SDS011;50280;49.864;8.638;2022-12-07T09:24:50;13.10;;;6.78;;
64033;SDS011;50280;49.864;8.638;2022-12-07T09:27:22;14.63;;;7.10;;
64033;SDS011;50280;49.864;8.638;2022-12-07T09:29:56;14.18;;;6.70;;
64033;SDS011;50280;49.864;8.638;2022-12-07T09:32:28;12.80;;;6.78;;
64033;SDS011;50280;49.864;8.638;2022-12-07T09:35:00;11.45;;;6.80;;
64033;SDS011;50280;49.864;8.638;2022-12-07T09:37:33;13.18;;;7.50;;
64033;SDS011;50280;49.864;8.638;2022-12-07T09:40:06;11.77;;;6.93;;
64033;SDS011;50280;49.864;8.638;2022-12-07T09:42:41;12.25;;;6.38;;
64033;SDS011;50280;49.864;8.638;2022-12-07T09:45:21;12.20;;;6.72;;
64033;SDS011;50280;49.864;8.638;2022-12-07T09:48:02;10.75;;;6.28;;
64033;SDS011;50280;49.864;8.638;2022-12-07T09:50:36;13.27;;;6.68;;
64033;SDS011;50280;49.864;8.638;2022-12-07T09:53:11;12.10;;;6.55;;
64033;SDS011;50280;49.864;8.638;2022-12-07T09:56:01;12.60;;;6.75;;
64033;SDS011;50280;49.864;8.638;2022-12-07T09:58:36;11.40;;;6.82;;
64033;SDS011;50280;49.864;8.638;2022-12-07T10:01:12;12.30;;;7.15;;
64033;SDS011;50280;49.864;8.638;2022-12-07T10:03:49;13.83;;;6.77;;
64033;SDS011;50280;49.864;8.638;2022-12-07T10:06:30;10.45;;;6.43;;
64033;SDS011;50280;49.864;8.638;2022-12-07T10:09:08;12.05;;;7.20;;
64033;SDS011;50280;49.864;8.638;2022-12-07T10:11:57;13.07;;;7.13;;
64033;SDS011;50280;49.864;8.638;2022-12-07T10:17:27;12.20;;;6.43;;
64033;SDS011;50280;49.864;8.638;2022-12-07T10:20:14;11.52;;;6.80;;
64033;SDS011;50280;49.864;8.638;2022-12-07T10:22:56;13.65;;;7.10;;
64033;SDS011;50280;49.864;8.638;2022-12-07T10:25:33;11.73;;;6.90;;
64033;SDS011;50280;49.864;8.638;2022-12-07T10:28:11;13.75;;;7.30;;
64033;SDS011;50280;49.864;8.638;2022-12-07T10:30:49;14.15;;;7.22;;
64033;SDS011;50280;49.864;8.638;2022-12-07T10:33:33;12.50;;;7.32;;
64033;SDS011;50280;49.864;8.638;2022-12-07T10:36:17;11.32;;;6.78;;
64033;SDS011;50280;49.864;8.638;2022-12-07T10:38:58;11.50;;;6.72;;
64033;SDS011;50280;49.864;8.638;2022-12-07T10:41:34;13.05;;;6.95;;
64033;SDS011;50280;49.864;8.638;2022-12-07T10:44:07;11.63;;;7.13;;
64033;SDS011;50280;49.864;8.638;2022-12-07T10:46:58;11.85;;;6.88;;
64033;SDS011;50280;49.864;8.638;2022-12-07T10:50:03;13.32;;;6.65;;
64033;SDS011;50280;49.864;8.638;2022-12-07T10:53:21;11.95;;;6.47;;
64033;SDS011;50280;49.864;8.638;2022-12-07T10:56:40;11.43;;;6.45;;
64033;SDS011;50280;49.864;8.638;2022-12-07T11:00:01;11.65;;;6.25;;
64033;SDS011;50280;49.864;8.638;2022-12-07T11:02:51;10.77;;;5.93;;
64033;SDS011;50280;49.864;8.638;2022-12-07T11:05:59;11.60;;;6.40;;
64033;SDS011;50280;49.864;8.638;2022-12-07T11:08:56;11.75;;;5.55;;
64033;SDS011;50280;49.864;8.638;2022-12-07T11:12:05;10.23;;;5.40;;
64033;SDS011;50280;49.864;8.638;2022-12-07T11:14:56;8.95;;;5.18;;
64033;SDS011;50280;49.864;8.638;2022-12-07T11:17:45;8.90;;;5.07;;
64033;SDS011;50280;49.864;8.638;2022-12-07T11:20:37;7.50;;;4.68;;
64033;SDS011;50280;49.864;8.638;2022-12-07T11:23:27;7.25;;;4.15;;
64033;SDS011;50280;49.864;8.638;2022-12-07T11:26:24;7.68;;;4.30;;
64033;SDS011;50280;49.864;8.638;2022-12-07T11:29:24;8.75;;;3.75;;
64033;SDS011;50280;49.864;8.638;2022-12-07T11:32:28;6.88;;;3.90;;
64033;SDS011;50280;49.864;8.638;2022-12-07T11:35:31;6.05;;;3.00;;
64033;SDS011;50280;49.864;8.638;2022-12-07T11:38:22;5.40;;;3.20;;
64033;SDS011;50280;49.864;8.638;2022-12-07T11:41:10;7.57;;;3.03;;
64033;SDS011;50280;49.864;8.638;2022-12-07T11:44:00;5.43;;;3.03;;
64033;SDS011;50280;49.864;8.638;2022-12-07T11:46:58;5.07;;;3.00;;
64033;SDS011;50280;49.864;8.638;2022-12-07T11:49:43;5.70;;;3.22;;
64033;SDS011;50280;49.864;8.638;2022-12-07T11:52:27;5.85;;;3.10;;
64033;SDS011;50280;49.864;8.638;2022-12-07T11:55:18;6.70;;;2.70;;
64033;SDS011;50280;49.864;8.638;2022-12-07T11:58:03;5.90;;;2.95;;
64033;SDS011;50280;49.864;8.638;2022-12-07T12:01:01;6.22;;;3.00;;
64033;SDS011;50280;49.864;8.638;2022-12-07T12:04:06;4.93;;;2.63;;
64033;SDS011;50280;49.864;8.638;2022-12-07T12:06:59;5.90;;;3.13;;
64033;SDS011;50280;49.864;8.638;2022-12-07T12:09:33;4.70;;;2.78;;
64033;SDS011;50280;49.864;8.638;2022-12-07T12:12:28;4.65;;;2.50;;
64033;SDS011;50280;49.864;8.638;2022-12-07T12:15:48;9.65;;;3.10;;
64033;SDS011;50280;49.864;8.638;2022-12-07T12:18:51;6.07;;;2.70;;
64033;SDS011;50280;49.864;8.638;2022-12-07T12:22:01;4.65;;;2.55;;
64033;SDS011;50280;49.864;8.638;2022-12-07T12:27:27;6.65;;;2.53;;
64033;SDS011;50280;49.864;8.638;2022-12-07T12:30:23;4.30;;;2.03;;
64033;SDS011;50280;49.864;8.638;2022-12-07T12:33:12;5.00;;;2.45;;
64033;SDS011;50280;49.864;8.638;2022-12-07T12:39:17;5.28;;;2.30;;
64033;SDS011;50280;49.864;8.638;2022-12-07T12:41:52;7.20;;;2.40;;
64033;SDS011;50280;49.864;8.638;2022-12-07T12:44:43;6.38;;;3.03;;
64033;SDS011;50280;49.864;8.638;2022-12-07T12:47:52;3.45;;;2.15;;
64033;SDS011;50280;49.864;8.638;2022-12-07T12:50:31;5.53;;;2.30;;
64033;SDS011;50280;49.864;8.638;2022-12-07T12:53:12;3.95;;;2.17;;
64033;SDS011;50280;49.864;8.638;2022-12-07T12:56:21;4.45;;;2.50;;
64033;SDS011;50280;49.864;8.638;2022-12-07T12:59:21;5.07;;;2.53;;
64033;SDS011;50280;49.864;8.638;2022-12-07T13:02:09;4.90;;;2.50;;
64033;SDS011;50280;49.864;8.638;2022-12-07T13:04:55;5.53;;;2.72;;
64033;SDS011;50280;49.864;8.638;2022-12-07T13:07:50;8.50;;;3.67;;
64033;SDS011;50280;49.864;8.638;2022-12-07T13:13:33;6.55;;;3.20;;
64033;SDS011;50280;49.864;8.638;2022-12-07T13:22:35;5.05;;;2.05;;
64033;SDS011;50280;49.864;8.638;2022-12-07T13:25:33;5.00;;;2.00;;
64033;SDS011;50280;49.864;8.638;2022-12-07T13:28:20;5.00;;;2.00;;
64033;SDS011;50280;49.864;8.638;2022-12-07T13:31:02;4.53;;;2.10;;
64033;SDS011;50280;49.864;8.638;2022-12-07T13:33:48;5.03;;;2.40;;
64033;SDS011;50280;49.864;8.638;2022-12-07T13:36:23;5.13;;;2.33;;
64033;SDS011;50280;49.864;8.638;2022-12-07T13:39:01;6.05;;;2.60;;
64033;SDS011;50280;49.864;8.638;2022-12-07T13:41:51;5.32;;;2.40;;
64033;SDS011;50280;49.864;8.638;2022-12-07T13:44:27;4.80;;;2.40;;
64033;SDS011;50280;49.864;8.638;2022-12-07T13:47:06;5.82;;;2.28;;
64033;SDS011;50280;49.864;8.638;2022-12-07T13:49:51;5.72;;;2.40;;
64033;SDS011;50280;49.864;8.638;2022-12-07T13:52:29;8.60;;;2.47;;
64033;SDS011;50280;49.864;8.638;2022-12-07T13:55:15;8.30;;;3.35;;
64033;SDS011;50280;49.864;8.638;2022-12-07T13:57:49;6.28;;;2.50;;
64033;SDS011;50280;49.864;8.638;2022-12-07T14:00:27;5.45;;;1.92;;
64033;SDS011;50280;49.864;8.638;2022-12-07T14:03:02;4.28;;;2.45;;
64033;SDS011;50280;49.864;8.638;2022-12-07T14:06:03;6.45;;;2.70;;
64033;SDS011;50280;49.864;8.638;2022-12-07T14:09:18;5.18;;;1.95;;
64033;SDS011;50280;49.864;8.638;2022-12-07T14:11:54;7.47;;;2.20;;
64033;SDS011;50280;49.864;8.638;2022-12-07T14:14:30;4.22;;;2.17;;
64033;SDS011;50280;49.864;8.638;2022-12-07T14:17:11;5.50;;;2.17;;
64033;SDS011;50280;49.864;8.638;2022-12-07T14:19:50;4.25;;;2.55;;
64033;SDS011;50280;49.864;8.638;2022-12-07T14:22:27;6.78;;;2.75;;
64033;SDS011;50280;49.864;8.638;2022-12-07T14:25:19;6.75;;;2.33;;
64033;SDS011;50280;49.864;8.638;2022-12-07T14:30:30;5.80;;;2.10;;
64033;SDS011;50280;49.864;8.638;2022-12-07T14:33:07;9.68;;;5.20;;
64033;SDS011;50280;49.864;8.638;2022-12-07T14:35:41;4.95;;;2.20;;
64033;SDS011;50280;49.864;8.638;2022-12-07T14:38:13;4.85;;;2.20;;
64033;SDS011;50280;49.864;8.638;2022-12-07T14:40:47;5.05;;;2.13;;
64033;SDS011;50280;49.864;8.638;2022-12-07T14:43:20;6.43;;;2.33;;
64033;SDS011;50280;49.864;8.638;2022-12-07T14:45:53;5.75;;;2.40;;
64033;SDS011;50280;49.864;8.638;2022-12-07T14:48:25;6.78;;;3.35;;
64033;SDS011;50280;49.864;8.638;2022-12-07T14:50:58;8.55;;;3.20;;
64033;SDS011;50280;49.864;8.638;2022-12-07T14:53:31;4.35;;;2.30;;
64033;SDS011;50280;49.864;8.638;2022-12-07T14:56:13;9.10;;;2.20;;
64033;SDS011;50280;49.864;8.638;2022-12-07T14:58:46;5.38;;;2.10;;
64033;SDS011;50280;49.864;8.638;2022-12-07T15:01:18;5.70;;;2.58;;
64033;SDS011;50280;49.864;8.638;2022-12-07T15:03:51;5.72;;;1.92;;
64033;SDS011;50280;49.864;8.638;2022-12-07T15:06:23;4.53;;;1.60;;
64033;SDS011;50280;49.864;8.638;2022-12-07T15:08:56;6.38;;;2.75;;
64033;SDS011;50280;49.864;8.638;2022-12-07T15:11:29;8.05;;;1.90;;
64033;SDS011;50280;49.864;8.638;2022-12-07T15:14:02;5.00;;;2.40;;
64033;SDS011;50280;49.864;8.638;2022-12-07T15:16:35;4.10;;;1.77;;
64033;SDS011;50280;49.864;8.638;2022-12-07T15:19:10;3.00;;;1.52;;
64033;SDS011;50280;49.864;8.638;2022-12-07T15:21:47;3.53;;;1.73;;
64033;SDS011;50280;49.864;8.638;2022-12-07T15:24:20;3.78;;;1.83;;
64033;SDS011;50280;49.864;8.638;2022-12-07T15:26:54;5.75;;;2.13;;
64033;SDS011;50280;49.864;8.638;2022-12-07T15:29:26;5.57;;;1.70;;
64033;SDS011;50280;49.864;8.638;2022-12-07T15:31:58;3.95;;;1.30;;
64033;SDS011;50280;49.864;8.638;2022-12-07T15:34:31;3.30;;;1.50;;
64033;SDS011;50280;49.864;8.638;2022-12-07T15:37:03;3.45;;;1.50;;
64033;SDS011;50280;49.864;8.638;2022-12-07T15:39:36;3.47;;;1.80;;
64033;SDS011;50280;49.864;8.638;2022-12-07T15:42:10;3.13;;;1.80;;
64033;SDS011;50280;49.864;8.638;2022-12-07T15:44:42;3.63;;;1.73;;
64033;SDS011;50280;49.864;8.638;2022-12-07T15:47:15;3.78;;;1.80;;
64033;SDS011;50280;49.864;8.638;2022-12-07T15:49:47;6.13;;;1.92;;
64033;SDS011;50280;49.864;8.638;2022-12-07T15:52:20;5.28;;;1.83;;
64033;SDS011;50280;49.864;8.638;2022-12-07T15:54:52;4.60;;;1.75;;
64033;SDS011;50280;49.864;8.638;2022-12-07T15:57:27;4.35;;;2.00;;
64033;SDS011;50280;49.864;8.638;2022-12-07T15:59:59;3.80;;;2.00;;
64033;SDS011;50280;49.864;8.638;2022-12-07T16:02:32;3.90;;;2.22;;
64033;SDS011;50280;49.864;8.638;2022-12-07T16:05:04;4.22;;;2.50;;
64033;SDS011;50280;49.864;8.638;2022-12-07T16:07:38;5.53;;;2.72;;
64033;SDS011;50280;49.864;8.638;2022-12-07T16:10:10;4.13;;;2.20;;
64033;SDS011;50280;49.864;8.638;2022-12-07T16:12:44;4.30;;;2.15;;
64033;SDS011;50280;49.864;8.638;2022-12-07T16:15:16;6.68;;;3.08;;
64033;SDS011;50280;49.864;8.638;2022-12-07T16:17:49;7.40;;;2.55;;